createdAt,value
2023-01-19T00:02:02.561Z,8.63
2023-01-19T00:05:06.279Z,8.52
2023-01-19T00:08:15.568Z,7.80
2023-01-19T00:11:19.034Z,8.05
2023-01-19T00:14:21.837Z,8.10
2023-01-19T00:17:24.841Z,7.70
2023-01-19T00:20:27.715Z,9.13
2023-01-19T00:23:30.696Z,6.30
2023-01-19T00:26:33.519Z,6.55
2023-01-19T00:29:36.492Z,5.87
2023-01-19T00:32:39.392Z,7.80
2023-01-19T00:35:42.977Z,6.93
2023-01-19T00:38:45.539Z,5.33
2023-01-19T00:42:07.244Z,5.22
2023-01-19T00:45:15.161Z,6.20
2023-01-19T00:48:18.322Z,7.28
2023-01-19T00:51:21.170Z,5.85
2023-01-19T00:54:24.436Z,6.73
2023-01-19T00:57:28.785Z,7.68
2023-01-19T01:00:32.149Z,6.57
2023-01-19T01:03:34.913Z,4.75
2023-01-19T01:06:38.164Z,6.47
2023-01-19T01:09:41.047Z,7.20
2023-01-19T01:12:57.038Z,6.07
2023-01-19T01:16:01.241Z,5.53
2023-01-19T01:19:04.615Z,5.93
2023-01-19T01:22:08.621Z,6.12
2023-01-19T01:25:19.262Z,5.67
2023-01-19T01:28:22.110Z,6.95
2023-01-19T01:31:25.323Z,6.40
2023-01-19T01:34:28.336Z,5.85
2023-01-19T01:37:31.423Z,5.80
2023-01-19T01:40:34.104Z,6.13
2023-01-19T01:43:58.528Z,5.03
2023-01-19T01:47:01.516Z,5.60
2023-01-19T01:50:16.956Z,8.02
2023-01-19T01:53:19.681Z,6.97
2023-01-19T01:56:26.635Z,4.47
2023-01-19T01:59:39.344Z,4.70
2023-01-19T02:02:52.082Z,5.60
2023-01-19T02:05:59.328Z,4.40
2023-01-19T02:09:27.106Z,5.18
2023-01-19T02:12:48.532Z,4.47
2023-01-19T02:15:54.386Z,4.22
2023-01-19T02:18:57.950Z,4.72
2023-01-19T02:22:20.868Z,5.12
2023-01-19T02:25:25.402Z,6.57
2023-01-19T02:28:28.878Z,5.03
2023-01-19T02:31:33.443Z,3.72
2023-01-19T02:34:36.334Z,4.28
2023-01-19T02:37:40.634Z,4.00
2023-01-19T02:40:44.723Z,4.20
2023-01-19T02:43:49.188Z,4.83
2023-01-19T02:46:54.582Z,3.40
2023-01-19T02:49:58.565Z,4.18
2023-01-19T02:53:26.231Z,3.70
2023-01-19T02:56:47.899Z,4.35
2023-01-19T03:00:12.609Z,4.13
2023-01-19T03:03:31.374Z,5.22
2023-01-19T03:06:45.143Z,3.83
2023-01-19T03:10:17.776Z,3.65
2023-01-19T03:13:32.695Z,2.90
2023-01-19T03:16:44.439Z,3.50
2023-01-19T03:19:49.677Z,3.65
2023-01-19T03:23:02.123Z,4.40
2023-01-19T03:26:06.563Z,4.53
2023-01-19T03:29:12.809Z,3.90
2023-01-19T03:32:16.704Z,5.50
2023-01-19T03:35:22.330Z,4.68
2023-01-19T03:38:26.468Z,4.53
2023-01-19T03:41:30.615Z,5.05
2023-01-19T03:44:35.348Z,4.20
2023-01-19T03:47:38.589Z,4.30
2023-01-19T03:50:41.285Z,3.85
2023-01-19T03:53:44.347Z,4.40
2023-01-19T03:56:46.972Z,5.53
2023-01-19T03:59:50.063Z,3.50
2023-01-19T04:02:52.913Z,4.03
2023-01-19T04:05:56.946Z,2.90
2023-01-19T04:08:59.673Z,4.45
2023-01-19T04:12:03.926Z,3.35
2023-01-19T04:15:07.309Z,2.92
2023-01-19T04:18:10.523Z,2.93
2023-01-19T04:21:13.277Z,3.83
2023-01-19T04:24:16.864Z,3.80
2023-01-19T04:27:19.888Z,2.58
2023-01-19T04:30:23.041Z,2.30
2023-01-19T04:33:27.788Z,2.57
2023-01-19T04:36:31.389Z,2.65
2023-01-19T04:39:34.537Z,3.20
2023-01-19T04:42:37.445Z,3.85
2023-01-19T04:45:40.139Z,3.08
2023-01-19T04:48:43.318Z,2.83
2023-01-19T04:51:46.824Z,3.65
2023-01-19T04:54:49.955Z,2.95
2023-01-19T04:57:52.646Z,2.28
2023-01-19T05:00:57.351Z,3.15
2023-01-19T05:04:01.010Z,2.70
2023-01-19T05:07:04.224Z,2.42
2023-01-19T05:10:07.960Z,2.97
2023-01-19T05:13:11.343Z,2.78
2023-01-19T05:16:14.220Z,2.83
2023-01-19T05:19:17.768Z,2.67
2023-01-19T05:22:20.485Z,2.87
2023-01-19T05:25:23.614Z,3.20
2023-01-19T05:28:30.490Z,3.65
2023-01-19T05:31:34.426Z,2.58
2023-01-19T05:34:37.475Z,2.57
2023-01-19T05:37:41.140Z,3.35
2023-01-19T05:40:44.056Z,3.30
2023-01-19T05:43:47.407Z,4.22
2023-01-19T05:46:50.506Z,3.80
2023-01-19T05:49:53.939Z,3.37
2023-01-19T05:52:57.042Z,4.28
2023-01-19T05:56:05.759Z,3.80
2023-01-19T05:59:09.077Z,3.72
2023-01-19T06:02:12.804Z,3.85
2023-01-19T06:05:16.789Z,4.17
2023-01-19T06:08:19.515Z,4.15
2023-01-19T06:11:23.013Z,4.35
2023-01-19T06:14:26.736Z,3.80
2023-01-19T06:17:32.420Z,4.55
2023-01-19T06:20:37.195Z,5.10
2023-01-19T06:23:40.820Z,4.82
2023-01-19T06:26:43.894Z,4.20
2023-01-19T06:29:47.126Z,4.30
2023-01-19T06:32:49.798Z,3.40
2023-01-19T06:35:52.769Z,4.37
2023-01-19T06:38:55.777Z,4.35
2023-01-19T06:41:59.213Z,4.32
2023-01-19T06:45:01.973Z,3.42
2023-01-19T06:48:06.463Z,3.92
2023-01-19T06:51:09.421Z,4.20
2023-01-19T06:54:12.587Z,4.85
2023-01-19T06:57:15.545Z,3.87
2023-01-19T07:00:19.167Z,4.53
2023-01-19T07:03:23.470Z,5.35
2023-01-19T07:06:26.849Z,4.10
2023-01-19T07:09:29.760Z,4.62
2023-01-19T07:12:33.420Z,3.33
2023-01-19T07:15:37.847Z,4.00
2023-01-19T07:18:41.218Z,5.07
2023-01-19T07:21:44.744Z,4.27
2023-01-19T07:24:48.065Z,3.87
2023-01-19T07:27:50.935Z,3.90
2023-01-19T07:30:55.443Z,4.75
2023-01-19T07:33:58.152Z,3.58
2023-01-19T07:37:01.558Z,6.50
2023-01-19T07:40:04.684Z,4.87
2023-01-19T07:43:08.469Z,4.70
2023-01-19T07:46:11.579Z,3.80
2023-01-19T07:49:14.593Z,6.18
2023-01-19T07:52:17.451Z,4.43
2023-01-19T07:55:20.833Z,4.20
2023-01-19T07:58:26.857Z,4.70
2023-01-19T08:01:30.268Z,3.92
2023-01-19T08:04:33.432Z,4.60
2023-01-19T08:07:36.237Z,3.50
2023-01-19T08:10:39.590Z,4.28
2023-01-19T08:13:43.641Z,4.45
2023-01-19T08:16:46.601Z,6.43
2023-01-19T08:19:49.599Z,4.97
2023-01-19T08:23:00.126Z,4.60
2023-01-19T08:26:18.271Z,4.85
2023-01-19T08:29:21.288Z,3.92
2023-01-19T08:32:24.025Z,4.57
2023-01-19T08:35:27.175Z,3.97
2023-01-19T08:38:30.540Z,4.43
2023-01-19T08:41:33.607Z,4.55
2023-01-19T08:44:37.877Z,5.22
2023-01-19T08:47:44.175Z,3.83
2023-01-19T08:50:47.823Z,5.00
2023-01-19T08:53:50.992Z,5.33
2023-01-19T08:56:53.581Z,4.60
2023-01-19T08:59:56.528Z,4.28
2023-01-19T09:03:00.551Z,5.07
2023-01-19T09:06:07.865Z,6.82
2023-01-19T09:09:10.883Z,4.57
2023-01-19T09:12:14.802Z,3.85
2023-01-19T09:15:18.151Z,5.78
2023-01-19T09:18:22.532Z,5.20
2023-01-19T09:21:26.120Z,4.75
2023-01-19T09:24:29.263Z,7.03
2023-01-19T09:27:31.975Z,5.37
2023-01-19T09:30:37.300Z,4.90
2023-01-19T09:33:40.175Z,5.12
2023-01-19T09:36:43.290Z,7.43
2023-01-19T09:39:46.119Z,4.80
2023-01-19T09:42:57.013Z,5.37
2023-01-19T09:46:02.746Z,5.75
2023-01-19T09:49:15.009Z,5.65
2023-01-19T09:52:18.555Z,7.03
2023-01-19T09:55:25.685Z,5.00
2023-01-19T09:58:29.064Z,5.93
2023-01-19T10:01:34.636Z,5.80
2023-01-19T10:05:03.417Z,5.32
2023-01-19T10:08:52.812Z,9.25
2023-01-19T10:12:05.535Z,5.50
2023-01-19T10:15:26.442Z,5.00
2023-01-19T10:18:45.893Z,4.78
2023-01-19T10:21:51.415Z,7.47
2023-01-19T10:25:00.620Z,7.00
2023-01-19T10:28:04.696Z,6.17
2023-01-19T10:31:09.703Z,7.70
2023-01-19T10:34:20.932Z,5.70
2023-01-19T10:37:34.606Z,5.68
2023-01-19T10:40:48.648Z,6.40
2023-01-19T10:44:00.167Z,6.90
2023-01-19T10:47:05.526Z,6.78
2023-01-19T10:50:31.267Z,5.82
2023-01-19T10:53:34.149Z,6.35
2023-01-19T10:56:38.569Z,7.30
2023-01-19T10:59:44.357Z,6.07
2023-01-19T11:02:51.461Z,5.60
2023-01-19T11:05:54.297Z,5.47
2023-01-19T11:09:11.583Z,6.32
2023-01-19T11:12:22.947Z,5.18
2023-01-19T11:15:36.627Z,5.40
2023-01-19T11:18:40.559Z,4.47
2023-01-19T11:21:43.744Z,5.05
2023-01-19T11:24:46.451Z,4.93
2023-01-19T11:27:51.915Z,5.53
2023-01-19T11:31:02.271Z,4.47
2023-01-19T11:34:14.607Z,4.43
2023-01-19T11:37:20.020Z,4.20
2023-01-19T11:40:23.364Z,4.47
2023-01-19T11:43:43.355Z,5.03
2023-01-19T11:47:06.190Z,3.93
2023-01-19T11:50:23.778Z,4.15
2023-01-19T11:53:29.362Z,5.28
2023-01-19T11:56:32.120Z,4.40
2023-01-19T11:59:35.212Z,3.53
2023-01-19T12:02:44.678Z,4.13
2023-01-19T12:05:51.333Z,4.62
2023-01-19T12:09:05.513Z,5.78
2023-01-19T12:12:43.921Z,4.62
2023-01-19T12:15:48.295Z,4.50
2023-01-19T12:18:56.836Z,4.23
2023-01-19T12:21:59.687Z,4.37
2023-01-19T12:25:08.496Z,4.78
2023-01-19T12:28:13.714Z,4.72
2023-01-19T12:31:19.325Z,5.78
2023-01-19T12:34:31.333Z,5.73
2023-01-19T12:37:41.206Z,7.57
2023-01-19T12:40:43.916Z,9.00
2023-01-19T12:43:48.048Z,7.78
2023-01-19T12:47:03.352Z,7.95
2023-01-19T12:50:14.297Z,9.00
2023-01-19T12:53:19.733Z,11.40
2023-01-19T12:56:30.985Z,8.30
2023-01-19T12:59:36.881Z,12.32
2023-01-19T13:02:47.510Z,10.50
2023-01-19T13:05:55.242Z,13.67
2023-01-19T13:09:00.918Z,13.05
2023-01-19T13:12:24.223Z,10.32
2023-01-19T13:15:33.517Z,8.07
2023-01-19T13:18:40.873Z,9.75
2023-01-19T13:21:48.601Z,9.40
2023-01-19T13:25:14.058Z,8.02
2023-01-19T13:28:19.032Z,11.65
2023-01-19T13:31:22.166Z,10.32
2023-01-19T13:34:26.576Z,11.98
2023-01-19T13:37:41.816Z,19.70
2023-01-19T13:40:45.754Z,9.85
2023-01-19T13:43:53.125Z,20.08
2023-01-19T13:46:57.531Z,9.63
2023-01-19T13:50:01.565Z,12.18
2023-01-19T13:53:20.871Z,13.50
2023-01-19T13:56:25.216Z,17.23
2023-01-19T13:59:28.605Z,16.77
2023-01-19T14:02:31.420Z,14.10
2023-01-19T14:05:42.632Z,13.85
2023-01-19T14:08:45.525Z,13.87
2023-01-19T14:12:12.371Z,11.45
2023-01-19T14:15:15.206Z,9.20
2023-01-19T14:18:18.200Z,8.82
2023-01-19T14:21:20.970Z,10.43
2023-01-19T14:24:24.642Z,13.90
2023-01-19T14:27:27.358Z,9.40
2023-01-19T14:30:32.646Z,9.50
2023-01-19T14:33:37.262Z,10.40
2023-01-19T14:36:42.035Z,9.98
2023-01-19T14:39:47.180Z,28.60
2023-01-19T14:42:55.875Z,14.55
2023-01-19T14:45:58.746Z,12.98
2023-01-19T14:49:03.847Z,10.18
2023-01-19T14:52:36.189Z,11.12
2023-01-19T14:55:51.246Z,11.87
2023-01-19T14:58:54.941Z,11.50
2023-01-19T15:02:00.002Z,15.48
2023-01-19T15:05:02.904Z,21.15
2023-01-19T15:08:06.871Z,18.67
2023-01-19T15:11:22.125Z,13.13
2023-01-19T15:14:25.200Z,16.02
2023-01-19T15:17:31.047Z,14.95
2023-01-19T15:20:34.258Z,18.98
2023-01-19T15:23:37.116Z,18.83
2023-01-19T15:26:42.764Z,25.00
2023-01-19T15:29:46.164Z,21.33
2023-01-19T15:32:49.458Z,18.95
2023-01-19T15:35:53.430Z,25.02
2023-01-19T15:38:57.259Z,24.10
2023-01-19T15:42:00.303Z,20.73
2023-01-19T15:45:03.871Z,25.95
2023-01-19T15:48:08.958Z,24.63
2023-01-19T15:51:16.775Z,42.58
2023-01-19T15:54:19.811Z,35.75
2023-01-19T15:57:23.295Z,29.30
2023-01-19T16:00:26.358Z,35.83
2023-01-19T16:03:29.402Z,39.22
2023-01-19T16:06:33.046Z,23.85
2023-01-19T16:09:40.739Z,27.67
2023-01-19T16:12:44.850Z,28.43
2023-01-19T16:15:48.823Z,23.08
2023-01-19T16:18:51.753Z,26.00
2023-01-19T16:21:54.843Z,25.60
2023-01-19T16:24:57.799Z,24.67
2023-01-19T16:28:00.746Z,25.33
2023-01-19T16:31:03.940Z,31.80
2023-01-19T16:34:07.780Z,31.15
2023-01-19T16:37:12.114Z,28.00
2023-01-19T16:40:15.359Z,26.75
2023-01-19T16:43:20.892Z,35.77
2023-01-19T16:46:26.976Z,25.50
2023-01-19T16:49:30.478Z,28.42
2023-01-19T16:52:33.989Z,26.90
2023-01-19T16:55:41.195Z,29.45
2023-01-19T16:58:44.477Z,35.67
2023-01-19T17:01:47.918Z,31.70
2023-01-19T17:04:51.669Z,33.88
2023-01-19T17:07:55.127Z,26.60
2023-01-19T17:10:58.717Z,29.00
2023-01-19T17:14:07.235Z,29.53
2023-01-19T17:17:10.183Z,26.87
2023-01-19T17:20:13.567Z,29.30
2023-01-19T17:23:18.113Z,30.42
2023-01-19T17:26:22.233Z,27.58
2023-01-19T17:29:25.770Z,32.73
2023-01-19T17:32:30.086Z,32.05
2023-01-19T17:35:34.873Z,29.08
2023-01-19T17:38:38.134Z,25.52
2023-01-19T17:41:42.011Z,37.67
2023-01-19T17:44:45.854Z,27.37
2023-01-19T17:47:50.388Z,26.75
2023-01-19T17:51:02.588Z,24.23
2023-01-19T17:54:06.089Z,27.85
2023-01-19T17:57:08.697Z,23.05
2023-01-19T18:00:12.894Z,29.50
2023-01-19T18:03:16.983Z,37.55
2023-01-19T18:06:20.369Z,29.00
2023-01-19T18:09:23.330Z,28.92
2023-01-19T18:12:26.362Z,25.17
2023-01-19T18:15:29.770Z,27.37
2023-01-19T18:18:32.757Z,28.73
2023-01-19T18:21:37.616Z,33.00
2023-01-19T18:24:41.408Z,30.05
2023-01-19T18:27:44.969Z,24.98
2023-01-19T18:30:48.172Z,42.00
2023-01-19T18:33:52.154Z,43.92
2023-01-19T18:36:55.061Z,39.38
2023-01-19T18:40:02.200Z,32.65
2023-01-19T18:43:06.300Z,43.55
2023-01-19T18:46:11.291Z,18.87
2023-01-19T18:49:14.575Z,22.42
2023-01-19T18:52:17.853Z,19.20
2023-01-19T18:55:21.042Z,23.27
2023-01-19T18:58:25.049Z,21.48
2023-01-19T19:01:32.799Z,20.63
2023-01-19T19:04:36.701Z,21.35
2023-01-19T19:07:40.175Z,20.42
2023-01-19T19:10:43.623Z,24.42
2023-01-19T19:13:51.130Z,20.73
2023-01-19T19:16:54.282Z,19.67
2023-01-19T19:19:57.824Z,25.15
2023-01-19T19:23:01.073Z,26.83
2023-01-19T19:26:08.886Z,22.67
2023-01-19T19:29:12.307Z,28.65
2023-01-19T19:32:16.757Z,26.83
2023-01-19T19:35:21.232Z,25.83
2023-01-19T19:38:24.449Z,25.95
2023-01-19T19:41:32.401Z,21.33
2023-01-19T19:44:35.523Z,21.98
2023-01-19T19:47:38.949Z,26.53
2023-01-19T19:50:42.160Z,23.50
2023-01-19T19:53:51.503Z,20.35
2023-01-19T19:56:55.287Z,22.23
2023-01-19T19:59:58.700Z,24.05
2023-01-19T20:03:03.036Z,23.83
2023-01-19T20:06:08.451Z,18.80
2023-01-19T20:09:15.737Z,19.73
2023-01-19T20:12:19.493Z,22.25
2023-01-19T20:15:22.784Z,22.13
2023-01-19T20:18:26.312Z,17.77
2023-01-19T20:21:32.103Z,23.70
2023-01-19T20:24:35.543Z,26.80
2023-01-19T20:27:38.787Z,23.58
2023-01-19T20:30:42.197Z,27.52
2023-01-19T20:33:46.614Z,25.23
2023-01-19T20:36:53.178Z,25.05
2023-01-19T20:39:56.018Z,21.83
2023-01-19T20:42:59.533Z,20.70
2023-01-19T20:46:04.054Z,25.35
2023-01-19T20:49:07.602Z,21.50
2023-01-19T20:52:10.736Z,22.37
2023-01-19T20:55:14.375Z,23.85
2023-01-19T20:58:17.098Z,18.98
2023-01-19T21:01:24.030Z,20.50
2023-01-19T21:04:27.138Z,19.03
2023-01-19T21:07:30.240Z,14.93
2023-01-19T21:10:33.325Z,16.08
2023-01-19T21:13:37.321Z,14.90
2023-01-19T21:16:40.340Z,13.73
2023-01-19T21:19:44.439Z,18.00
2023-01-19T21:22:47.443Z,15.68
2023-01-19T21:25:51.822Z,14.00
2023-01-19T21:28:54.835Z,14.23
2023-01-19T21:31:58.682Z,13.82
2023-01-19T21:35:01.543Z,12.00
2023-01-19T21:38:04.660Z,12.73
2023-01-19T21:41:09.887Z,12.55
2023-01-19T21:44:13.458Z,12.55
2023-01-19T21:47:16.355Z,14.90
2023-01-19T21:50:19.788Z,16.40
2023-01-19T21:53:22.731Z,14.68
2023-01-19T21:56:29.543Z,17.55
2023-01-19T21:59:32.443Z,13.50
2023-01-19T22:02:38.827Z,13.13
2023-01-19T22:05:42.357Z,18.57
2023-01-19T22:08:46.767Z,16.02
2023-01-19T22:11:49.900Z,16.95
2023-01-19T22:14:53.200Z,17.75
2023-01-19T22:17:56.497Z,17.02
2023-01-19T22:21:08.317Z,18.97
2023-01-19T22:24:12.888Z,27.52
2023-01-19T22:27:15.826Z,35.00
2023-01-19T22:30:19.301Z,16.10
2023-01-19T22:33:22.238Z,16.75
2023-01-19T22:36:29.954Z,13.93
2023-01-19T22:39:34.654Z,20.23
2023-01-19T22:42:37.687Z,18.45
2023-01-19T22:45:41.785Z,19.30
2023-01-19T22:48:45.301Z,16.65
2023-01-19T22:51:49.974Z,15.47
2023-01-19T22:54:56.328Z,15.63
2023-01-19T22:57:58.968Z,17.12
2023-01-19T23:01:09.727Z,13.38
2023-01-19T23:04:15.146Z,16.30
2023-01-19T23:07:18.290Z,15.93
2023-01-19T23:10:21.394Z,14.27
2023-01-19T23:13:25.110Z,12.37
2023-01-19T23:16:27.965Z,13.77
2023-01-19T23:19:31.461Z,11.93
2023-01-19T23:22:34.248Z,12.30
2023-01-19T23:25:37.513Z,13.40
2023-01-19T23:28:41.360Z,14.07
2023-01-19T23:31:47.116Z,12.98
2023-01-19T23:34:49.922Z,12.88
2023-01-19T23:37:53.187Z,11.53
2023-01-19T23:40:58.822Z,13.88
2023-01-19T23:44:02.821Z,11.60
2023-01-19T23:47:05.675Z,11.93
2023-01-19T23:50:09.794Z,10.35
2023-01-19T23:53:12.702Z,10.33
2023-01-19T23:56:21.591Z,11.15
2023-01-19T23:59:24.321Z,10.70
